20V

Mc Elroy Airfield Airport

Kremmling, Colorado, USA
METAR K20V 170430Z AUTO 00000KT 10SM OVC100 M03/M07 A3011 RMK AO2
Observed Flight Rules
Nov-17 @ 04:30 UTC (11 minutes ago) Visual Flight Rules
Visibility Clouds
10 miles
  • Overcast at 10,000' AGL
Temperatures Readings
Current -3°C / 27°F
Dewpoint -7°C / 19°F
Humidity 74%
Altimeter 30.11" Hg
Pressure 1020 hPa
Elevation 2259
METAR K20V 170430Z AUTO 00000KT 10SM OVC100 M03/M07 A3011 RMK AO2
Observed Flight Rules
Nov-17 @ 04:30 UTC
(11 minutes ago)
VFR
Clouds
  • Overcast at 10,000' AGL
Temperature Dewpoint
-3°C / 27°F -7°C / 19°F
Humidity Altimeter Pressure
74% 30.11" Hg 1020 hPa